createdAt,value
2018-10-11T00:04:13.432Z,72.63
2018-10-11T00:09:16.443Z,55.07
2018-10-11T00:14:19.528Z,62.00
2018-10-11T00:19:22.571Z,69.03
2018-10-11T00:24:25.629Z,58.70
2018-10-11T00:29:28.689Z,61.13
2018-10-11T00:34:31.824Z,54.80
2018-10-11T00:39:34.980Z,61.47
2018-10-11T00:44:38.035Z,59.13
2018-10-11T00:49:41.091Z,63.03
2018-10-11T00:54:44.181Z,58.60
2018-10-11T00:59:47.341Z,60.63
2018-10-11T01:04:50.428Z,63.20
2018-10-11T01:09:53.503Z,64.80
2018-10-11T01:14:56.575Z,63.80
2018-10-11T01:19:59.726Z,54.87
2018-10-11T01:25:02.759Z,63.90
2018-10-11T01:30:06.532Z,58.33
2018-10-11T01:35:09.534Z,60.17
2018-10-11T01:40:12.609Z,64.30
2018-10-11T01:45:15.663Z,64.50
2018-10-11T01:50:18.775Z,60.77
2018-10-11T01:55:21.831Z,63.03
2018-10-11T02:00:25.251Z,65.20
2018-10-11T02:05:28.862Z,59.77
2018-10-11T02:10:31.920Z,62.53
2018-10-11T02:15:34.976Z,64.97
2018-10-11T02:20:38.028Z,58.97
2018-10-11T02:25:41.139Z,67.73
2018-10-11T02:30:45.261Z,63.23
2018-10-11T02:35:48.526Z,61.80
2018-10-11T02:40:51.608Z,65.97
2018-10-11T02:45:54.680Z,70.17
2018-10-11T02:50:57.741Z,69.20
2018-10-11T02:56:00.794Z,62.60
2018-10-11T03:01:03.797Z,67.53
2018-10-11T03:06:06.899Z,56.67
2018-10-11T03:11:09.996Z,68.90
2018-10-11T03:16:13.027Z,61.03
2018-10-11T03:21:16.848Z,65.60
2018-10-11T03:26:19.951Z,64.33
2018-10-11T03:31:22.946Z,66.27
2018-10-11T03:36:26.000Z,65.70
2018-10-11T03:41:29.100Z,61.23
2018-10-11T03:46:32.208Z,70.80
2018-10-11T03:51:35.182Z,72.80
2018-10-11T03:56:38.340Z,66.60
2018-10-11T04:01:41.385Z,67.80
2018-10-11T04:06:44.400Z,67.00
2018-10-11T04:11:47.507Z,68.90
2018-10-11T04:16:50.619Z,67.57
2018-10-11T04:21:53.681Z,67.33
2018-10-11T04:26:56.719Z,69.70
2018-10-11T04:31:59.807Z,67.53
2018-10-11T04:37:02.848Z,69.13
2018-10-11T04:42:06.262Z,70.37
2018-10-11T04:47:09.318Z,67.80
2018-10-11T04:52:12.386Z,69.60
2018-10-11T04:57:15.448Z,72.83
2018-10-11T05:02:18.480Z,71.57
2018-10-11T05:07:21.560Z,66.07
2018-10-11T05:12:24.667Z,70.93
2018-10-11T05:17:27.689Z,68.47
2018-10-11T05:22:30.724Z,58.43
2018-10-11T05:27:33.805Z,72.00
2018-10-11T05:32:36.837Z,59.77
2018-10-11T05:37:39.887Z,65.00
2018-10-11T05:42:42.921Z,61.77
2018-10-11T05:47:46.963Z,67.13
2018-10-11T05:52:49.992Z,62.60
2018-10-11T05:57:53.055Z,63.40
2018-10-11T06:02:59.502Z,59.27
2018-10-11T06:08:02.850Z,74.50
2018-10-11T06:13:06.739Z,61.10
2018-10-11T06:18:10.823Z,64.30
2018-10-11T06:23:13.903Z,65.50
2018-10-11T06:28:16.928Z,59.77
2018-10-11T06:33:20.042Z,75.37
2018-10-11T06:38:23.121Z,72.40
2018-10-11T06:43:26.309Z,70.83
2018-10-11T06:48:29.361Z,64.97
2018-10-11T06:53:32.451Z,83.07
2018-10-11T06:58:35.489Z,61.23
2018-10-11T07:03:38.554Z,52.00
2018-10-11T07:08:41.571Z,53.27
2018-10-11T07:13:45.960Z,65.20
2018-10-11T07:18:49.097Z,46.87
2018-10-11T07:23:52.229Z,48.80
2018-10-11T07:28:55.312Z,43.03
2018-10-11T07:33:58.427Z,39.50
2018-10-11T07:39:01.502Z,37.30
2018-10-11T07:44:04.612Z,38.83
2018-10-11T07:49:08.539Z,35.73
2018-10-11T07:54:11.662Z,37.60
2018-10-11T07:59:14.835Z,36.57
2018-10-11T08:04:17.984Z,56.27
2018-10-11T08:09:21.130Z,33.00
2018-10-11T08:14:24.251Z,72.43
2018-10-11T08:19:27.517Z,45.47
2018-10-11T08:24:30.503Z,36.67
2018-10-11T08:29:33.426Z,48.93
2018-10-11T08:34:36.465Z,54.07
2018-10-11T08:39:39.539Z,34.97
2018-10-11T08:44:42.608Z,38.00
2018-10-11T08:49:45.712Z,37.23
2018-10-11T08:54:50.050Z,39.30
2018-10-11T08:59:53.066Z,35.50
2018-10-11T09:04:56.095Z,36.47
2018-10-11T09:09:59.164Z,32.23
2018-10-11T09:15:02.212Z,35.37
2018-10-11T09:20:05.352Z,32.37
2018-10-11T09:25:08.477Z,28.93
2018-10-11T09:30:11.626Z,31.30
2018-10-11T09:35:14.713Z,29.30
2018-10-11T09:40:17.757Z,26.17
2018-10-11T09:45:20.899Z,27.63
2018-10-11T09:50:23.975Z,30.63
2018-10-11T09:55:27.038Z,27.13
2018-10-11T10:00:34.556Z,38.10
2018-10-11T10:05:37.618Z,27.40
2018-10-11T10:10:40.677Z,25.63
2018-10-11T10:15:43.775Z,28.87
2018-10-11T10:20:46.671Z,31.03
2018-10-11T10:25:49.708Z,31.03
2018-10-11T10:30:54.049Z,26.70
2018-10-11T10:35:57.113Z,26.20
2018-10-11T10:41:00.146Z,28.53
2018-10-11T10:46:03.288Z,35.47
2018-10-11T10:51:06.380Z,31.03
2018-10-11T10:56:09.485Z,24.83
2018-10-11T11:01:12.562Z,26.10
2018-10-11T11:06:15.811Z,31.77
2018-10-11T11:11:18.862Z,26.40
2018-10-11T11:16:21.888Z,25.60
2018-10-11T11:21:24.939Z,26.50
2018-10-11T11:26:28.007Z,28.90
2018-10-11T11:31:31.564Z,25.73
2018-10-11T11:36:34.615Z,24.93
2018-10-11T11:41:37.744Z,43.20
2018-10-11T11:46:40.805Z,26.57
2018-10-11T11:51:43.907Z,30.60
2018-10-11T11:56:46.967Z,27.27
2018-10-11T12:01:50.059Z,35.93
2018-10-11T12:06:53.120Z,36.50
2018-10-11T12:11:56.261Z,25.97
2018-10-11T12:16:59.336Z,20.90
2018-10-11T12:22:02.418Z,29.43
2018-10-11T12:27:05.716Z,25.07
2018-10-11T12:32:08.908Z,29.70
2018-10-11T12:37:12.008Z,24.33
2018-10-11T12:42:15.052Z,24.90
2018-10-11T12:47:18.163Z,26.20
2018-10-11T12:52:21.595Z,31.13
2018-10-11T12:57:24.733Z,21.97
2018-10-11T13:02:27.784Z,24.40
2018-10-11T13:07:31.152Z,22.33
2018-10-11T13:12:34.444Z,25.73
2018-10-11T13:17:42.813Z,24.43
2018-10-11T13:22:40.571Z,21.80
2018-10-11T13:27:43.633Z,25.10
2018-10-11T13:32:46.697Z,18.60
2018-10-11T13:37:49.751Z,22.90
2018-10-11T13:42:52.802Z,21.73
2018-10-11T13:47:55.904Z,21.00
2018-10-11T13:52:58.949Z,28.30
2018-10-11T13:58:01.988Z,23.13
2018-10-11T14:03:05.070Z,23.80
2018-10-11T14:08:08.163Z,24.40
2018-10-11T14:13:15.774Z,21.97
2018-10-11T14:18:14.495Z,19.13
2018-10-11T14:23:17.572Z,23.43
2018-10-11T14:28:21.755Z,19.90
2018-10-11T14:33:24.807Z,23.47
2018-10-11T14:38:27.863Z,23.07
2018-10-11T14:43:32.151Z,30.73
2018-10-11T14:48:35.190Z,20.07
2018-10-11T14:53:38.251Z,22.53
2018-10-11T14:58:41.293Z,21.80
2018-10-11T15:03:44.358Z,20.23
2018-10-11T15:08:47.491Z,25.50
2018-10-11T15:13:50.557Z,19.27
2018-10-11T15:18:54.849Z,20.37
2018-10-11T15:23:58.031Z,17.67
2018-10-11T15:29:02.158Z,21.30
2018-10-11T15:34:05.303Z,21.20
2018-10-11T15:39:09.649Z,24.10
2018-10-11T15:44:12.961Z,19.90
2018-10-11T15:49:15.995Z,24.10
2018-10-11T15:54:19.016Z,31.30
2018-10-11T15:59:22.098Z,51.63
2018-10-11T16:04:25.120Z,31.60
2018-10-11T16:09:28.289Z,28.13
2018-10-11T16:14:31.287Z,29.13
2018-10-11T16:19:34.346Z,25.73
2018-10-11T16:24:37.412Z,27.60
2018-10-11T16:29:40.569Z,111.40
2018-10-11T16:34:43.730Z,42.63
2018-10-11T16:39:46.812Z,77.30
2018-10-11T16:44:49.912Z,32.20
2018-10-11T16:49:52.929Z,29.80
2018-10-11T16:54:56.082Z,34.20
2018-10-11T16:59:59.117Z,50.07
2018-10-11T17:05:02.197Z,62.90
2018-10-11T17:10:05.626Z,45.97
2018-10-11T17:15:08.799Z,37.03
2018-10-11T17:20:11.880Z,32.83
2018-10-11T17:25:15.166Z,45.77
2018-10-11T17:30:18.277Z,65.43
2018-10-11T17:35:21.550Z,57.20
2018-10-11T17:40:24.519Z,65.07
2018-10-11T17:45:27.596Z,39.83
2018-10-11T17:50:30.736Z,41.10
2018-10-11T17:55:33.809Z,65.10
2018-10-11T18:00:36.939Z,54.40
2018-10-11T18:05:39.964Z,113.73
2018-10-11T18:10:43.221Z,38.80
2018-10-11T18:15:46.269Z,66.00
2018-10-11T18:20:49.370Z,69.67
2018-10-11T18:25:52.485Z,55.13
2018-10-11T18:30:55.629Z,46.30
2018-10-11T18:35:58.746Z,42.93
2018-10-11T18:41:01.832Z,40.20
2018-10-11T18:46:04.946Z,36.07
2018-10-11T18:51:09.283Z,35.50
2018-10-11T18:56:12.318Z,45.50
2018-10-11T19:01:15.394Z,35.87
2018-10-11T19:06:18.514Z,36.40
2018-10-11T19:11:21.860Z,38.53
2018-10-11T19:16:24.925Z,32.23
2018-10-11T19:21:28.288Z,52.50
2018-10-11T19:26:31.365Z,66.43
2018-10-11T19:31:34.471Z,49.27
2018-10-11T19:36:37.491Z,91.60
2018-10-11T19:41:40.658Z,59.27
2018-10-11T19:46:43.856Z,61.83
2018-10-11T19:51:46.905Z,40.03
2018-10-11T19:56:50.004Z,55.00
2018-10-11T20:01:53.097Z,69.67
2018-10-11T20:06:56.135Z,154.67
2018-10-11T20:11:59.196Z,137.17
2018-10-11T20:17:02.299Z,33.33
2018-10-11T20:22:05.941Z,62.43
2018-10-11T20:27:09.116Z,48.57
2018-10-11T20:32:12.172Z,73.10
2018-10-11T20:37:15.203Z,90.30
2018-10-11T20:42:18.259Z,56.63
2018-10-11T20:47:21.284Z,70.57
2018-10-11T20:52:24.365Z,70.73
2018-10-11T20:57:27.455Z,52.93
2018-10-11T21:02:30.468Z,43.43
2018-10-11T21:07:33.518Z,43.67
2018-10-11T21:12:36.541Z,67.53
2018-10-11T21:17:39.650Z,80.10
2018-10-11T21:22:42.792Z,37.60
2018-10-11T21:27:45.820Z,61.70
2018-10-11T21:32:49.884Z,77.10
2018-10-11T21:37:52.900Z,40.70
2018-10-11T21:42:56.047Z,26.87
2018-10-11T21:47:59.221Z,33.97
2018-10-11T21:53:02.264Z,24.03
2018-10-11T21:58:05.304Z,42.83
2018-10-11T22:03:08.560Z,29.93
2018-10-11T22:08:11.590Z,24.37
2018-10-11T22:13:14.637Z,21.50
2018-10-11T22:18:17.752Z,28.70
2018-10-11T22:23:20.852Z,85.23
2018-10-11T22:28:23.892Z,25.90
2018-10-11T22:33:27.232Z,24.97
2018-10-11T22:38:30.296Z,29.03
2018-10-11T22:43:33.361Z,53.10
2018-10-11T22:48:36.437Z,20.63
2018-10-11T22:53:39.493Z,114.17
2018-10-11T22:58:42.521Z,94.93
2018-10-11T23:03:45.601Z,60.90
2018-10-11T23:08:48.655Z,27.50
2018-10-11T23:13:51.674Z,23.00
2018-10-11T23:18:54.777Z,23.20
2018-10-11T23:23:57.799Z,28.53
2018-10-11T23:29:00.843Z,28.17
2018-10-11T23:34:03.900Z,28.00
2018-10-11T23:39:08.524Z,33.67
2018-10-11T23:44:11.817Z,26.60
2018-10-11T23:49:14.855Z,36.90
2018-10-11T23:54:17.921Z,27.63
2018-10-11T23:59:21.019Z,30.57
